sensor_id;sensor_type;location;lat;lon;timestamp;temperature;humidity
67165;SHT31;54093;50.014;19.984;2023-02-15T00:01:21;4.00;76.02
67165;SHT31;54093;50.014;19.984;2023-02-15T00:10:42;4.04;76.33
67165;SHT31;54093;50.014;19.984;2023-02-15T00:20:03;4.04;76.03
67165;SHT31;54093;50.014;19.984;2023-02-15T00:29:24;4.01;76.34
67165;SHT31;54093;50.014;19.984;2023-02-15T00:38:45;3.94;75.46
67165;SHT31;54093;50.014;19.984;2023-02-15T00:48:06;3.95;74.99
67165;SHT31;54093;50.014;19.984;2023-02-15T00:57:27;3.93;74.27
67165;SHT31;54093;50.014;19.984;2023-02-15T01:06:48;3.91;74.45
67165;SHT31;54093;50.014;19.984;2023-02-15T01:16:09;3.89;75.37
67165;SHT31;54093;50.014;19.984;2023-02-15T01:25:30;3.83;75.41
67165;SHT31;54093;50.014;19.984;2023-02-15T01:34:51;3.83;75.01
67165;SHT31;54093;50.014;19.984;2023-02-15T01:54:29;3.84;76.37
67165;SHT31;54093;50.014;19.984;2023-02-15T02:04:02;3.77;75.91
67165;SHT31;54093;50.014;19.984;2023-02-15T02:13:26;3.76;76.52
67165;SHT31;54093;50.014;19.984;2023-02-15T02:42:39;3.70;76.05
67165;SHT31;54093;50.014;19.984;2023-02-15T02:52:03;3.71;76.30
67165;SHT31;54093;50.014;19.984;2023-02-15T03:01:52;3.56;75.66
67165;SHT31;54093;50.014;19.984;2023-02-15T03:11:14;3.55;75.19
67165;SHT31;54093;50.014;19.984;2023-02-15T03:20:36;3.51;76.40
67165;SHT31;54093;50.014;19.984;2023-02-15T03:29:58;3.55;76.14
67165;SHT31;54093;50.014;19.984;2023-02-15T03:39:25;3.49;76.35
67165;SHT31;54093;50.014;19.984;2023-02-15T03:48:52;3.36;76.42
67165;SHT31;54093;50.014;19.984;2023-02-15T03:58:13;3.32;76.73
67165;SHT31;54093;50.014;19.984;2023-02-15T04:07:53;3.25;76.84
67165;SHT31;54093;50.014;19.984;2023-02-15T04:17:14;3.26;77.05
67165;SHT31;54093;50.014;19.984;2023-02-15T04:26:35;3.23;76.90
67165;SHT31;54093;50.014;19.984;2023-02-15T04:35:56;3.18;77.00
67165;SHT31;54093;50.014;19.984;2023-02-15T04:45:17;3.18;77.11
67165;SHT31;54093;50.014;19.984;2023-02-15T04:54:38;3.22;77.23
67165;SHT31;54093;50.014;19.984;2023-02-15T05:03:59;3.16;77.07
67165;SHT31;54093;50.014;19.984;2023-02-15T05:13:20;3.08;77.00
67165;SHT31;54093;50.014;19.984;2023-02-15T05:22:41;3.15;77.35
67165;SHT31;54093;50.014;19.984;2023-02-15T05:32:02;3.14;77.54
67165;SHT31;54093;50.014;19.984;2023-02-15T05:41:24;3.08;77.23
67165;SHT31;54093;50.014;19.984;2023-02-15T05:50:46;3.08;77.48
67165;SHT31;54093;50.014;19.984;2023-02-15T06:00:17;3.07;77.24
67165;SHT31;54093;50.014;19.984;2023-02-15T06:09:38;3.01;77.67
67165;SHT31;54093;50.014;19.984;2023-02-15T06:18:59;3.00;77.56
67165;SHT31;54093;50.014;19.984;2023-02-15T06:28:21;2.97;77.89
67165;SHT31;54093;50.014;19.984;2023-02-15T06:37:45;3.02;78.12
67165;SHT31;54093;50.014;19.984;2023-02-15T06:47:07;2.91;77.88
67165;SHT31;54093;50.014;19.984;2023-02-15T06:56:29;2.91;78.07
67165;SHT31;54093;50.014;19.984;2023-02-15T07:05:55;3.01;78.01
67165;SHT31;54093;50.014;19.984;2023-02-15T07:15:18;3.04;77.76
67165;SHT31;54093;50.014;19.984;2023-02-15T07:24:41;3.07;78.05
67165;SHT31;54093;50.014;19.984;2023-02-15T07:34:02;3.09;77.68
67165;SHT31;54093;50.014;19.984;2023-02-15T07:43:23;3.15;77.51
67165;SHT31;54093;50.014;19.984;2023-02-15T07:52:44;3.29;77.75
67165;SHT31;54093;50.014;19.984;2023-02-15T08:02:10;3.42;76.23
67165;SHT31;54093;50.014;19.984;2023-02-15T08:11:33;3.56;76.62
67165;SHT31;54093;50.014;19.984;2023-02-15T08:20:58;4.07;76.69
67165;SHT31;54093;50.014;19.984;2023-02-15T08:30:18;5.17;76.67
67165;SHT31;54093;50.014;19.984;2023-02-15T08:39:39;5.92;76.04
67165;SHT31;54093;50.014;19.984;2023-02-15T08:49:01;6.93;70.38
67165;SHT31;54093;50.014;19.984;2023-02-15T08:58:21;6.64;66.37
67165;SHT31;54093;50.014;19.984;2023-02-15T09:07:43;7.12;70.34
67165;SHT31;54093;50.014;19.984;2023-02-15T09:17:04;7.96;67.10
67165;SHT31;54093;50.014;19.984;2023-02-15T09:26:27;8.51;65.96
67165;SHT31;54093;50.014;19.984;2023-02-15T09:35:49;8.78;61.81
67165;SHT31;54093;50.014;19.984;2023-02-15T09:54:55;8.40;61.85
67165;SHT31;54093;50.014;19.984;2023-02-15T10:33:38;8.47;62.30
67165;SHT31;54093;50.014;19.984;2023-02-15T10:52:35;8.51;60.88
67165;SHT31;54093;50.014;19.984;2023-02-15T11:11:29;8.57;61.83
67165;SHT31;54093;50.014;19.984;2023-02-15T11:30:23;8.78;61.01
67165;SHT31;54093;50.014;19.984;2023-02-15T11:39:46;8.93;60.66
67165;SHT31;54093;50.014;19.984;2023-02-15T11:58:51;9.16;59.57
67165;SHT31;54093;50.014;19.984;2023-02-15T12:08:21;9.28;59.30
67165;SHT31;54093;50.014;19.984;2023-02-15T12:17:52;9.42;58.73
67165;SHT31;54093;50.014;19.984;2023-02-15T12:27:27;9.57;58.67
67165;SHT31;54093;50.014;19.984;2023-02-15T12:36:53;9.70;58.11
67165;SHT31;54093;50.014;19.984;2023-02-15T12:46:24;9.83;57.79
67165;SHT31;54093;50.014;19.984;2023-02-15T12:55:55;10.12;57.00
67165;SHT31;54093;50.014;19.984;2023-02-15T13:05:33;10.39;56.75
67165;SHT31;54093;50.014;19.984;2023-02-15T13:14:55;10.87;56.21
67165;SHT31;54093;50.014;19.984;2023-02-15T13:24:24;11.43;54.96
67165;SHT31;54093;50.014;19.984;2023-02-15T13:34:14;11.97;52.89
67165;SHT31;54093;50.014;19.984;2023-02-15T13:43:43;12.37;52.85
67165;SHT31;54093;50.014;19.984;2023-02-15T14:03:19;12.99;56.07
67165;SHT31;54093;50.014;19.984;2023-02-15T14:31:53;12.69;53.97
67165;SHT31;54093;50.014;19.984;2023-02-15T14:41:31;11.42;57.87
67165;SHT31;54093;50.014;19.984;2023-02-15T14:50:56;10.63;60.08
67165;SHT31;54093;50.014;19.984;2023-02-15T15:00:33;10.15;61.48
67165;SHT31;54093;50.014;19.984;2023-02-15T15:10:45;9.70;63.87
67165;SHT31;54093;50.014;19.984;2023-02-15T15:29:07;9.12;65.98
67165;SHT31;54093;50.014;19.984;2023-02-15T15:57:43;8.41;68.45
67165;SHT31;54093;50.014;19.984;2023-02-15T16:16:53;7.93;69.78
67165;SHT31;54093;50.014;19.984;2023-02-15T16:35:59;7.52;70.99
67165;SHT31;54093;50.014;19.984;2023-02-15T16:45:30;7.28;70.64
67165;SHT31;54093;50.014;19.984;2023-02-15T16:55:02;7.03;71.84
67165;SHT31;54093;50.014;19.984;2023-02-15T17:04:29;6.76;71.39
67165;SHT31;54093;50.014;19.984;2023-02-15T17:23:37;6.28;72.10
67165;SHT31;54093;50.014;19.984;2023-02-15T17:33:02;6.03;72.04
67165;SHT31;54093;50.014;19.984;2023-02-15T17:42:24;5.77;72.37
67165;SHT31;54093;50.014;19.984;2023-02-15T17:51:45;5.42;73.18
67165;SHT31;54093;50.014;19.984;2023-02-15T18:01:10;5.21;72.55
67165;SHT31;54093;50.014;19.984;2023-02-15T18:10:52;5.01;73.21
67165;SHT31;54093;50.014;19.984;2023-02-15T18:20:35;4.76;73.48
67165;SHT31;54093;50.014;19.984;2023-02-15T18:29:59;4.56;72.94
67165;SHT31;54093;50.014;19.984;2023-02-15T18:39:27;4.39;73.41
67165;SHT31;54093;50.014;19.984;2023-02-15T18:48:49;4.21;74.74
67165;SHT31;54093;50.014;19.984;2023-02-15T18:58:15;4.05;74.60
67165;SHT31;54093;50.014;19.984;2023-02-15T19:07:37;3.76;74.08
67165;SHT31;54093;50.014;19.984;2023-02-15T19:16:59;3.56;75.02
67165;SHT31;54093;50.014;19.984;2023-02-15T19:26:20;3.53;75.38
67165;SHT31;54093;50.014;19.984;2023-02-15T19:35:43;3.21;75.57
67165;SHT31;54093;50.014;19.984;2023-02-15T19:45:12;3.19;75.88
67165;SHT31;54093;50.014;19.984;2023-02-15T19:54:34;3.15;75.55
67165;SHT31;54093;50.014;19.984;2023-02-15T20:03:55;3.00;74.55
67165;SHT31;54093;50.014;19.984;2023-02-15T20:13:18;2.70;75.63
67165;SHT31;54093;50.014;19.984;2023-02-15T20:22:41;2.72;76.11
67165;SHT31;54093;50.014;19.984;2023-02-15T20:32:02;2.56;76.08
67165;SHT31;54093;50.014;19.984;2023-02-15T20:41:24;2.39;75.94
67165;SHT31;54093;50.014;19.984;2023-02-15T20:50:58;2.11;76.25
67165;SHT31;54093;50.014;19.984;2023-02-15T21:00:25;2.15;76.76
67165;SHT31;54093;50.014;19.984;2023-02-15T21:09:46;2.16;76.33
67165;SHT31;54093;50.014;19.984;2023-02-15T21:19:12;2.02;74.53
67165;SHT31;54093;50.014;19.984;2023-02-15T21:28:34;1.74;75.40
67165;SHT31;54093;50.014;19.984;2023-02-15T21:37:57;1.48;77.65
67165;SHT31;54093;50.014;19.984;2023-02-15T21:57:16;2.01;79.87
67165;SHT31;54093;50.014;19.984;2023-02-15T22:06:38;2.06;79.21
67165;SHT31;54093;50.014;19.984;2023-02-15T22:15:59;2.05;79.49
67165;SHT31;54093;50.014;19.984;2023-02-15T22:25:24;2.08;79.40
67165;SHT31;54093;50.014;19.984;2023-02-15T22:34:46;2.11;79.58
67165;SHT31;54093;50.014;19.984;2023-02-15T22:44:11;2.09;79.36
67165;SHT31;54093;50.014;19.984;2023-02-15T22:53:32;2.08;79.60
67165;SHT31;54093;50.014;19.984;2023-02-15T23:02:54;2.08;79.53
67165;SHT31;54093;50.014;19.984;2023-02-15T23:12:22;2.02;79.90
67165;SHT31;54093;50.014;19.984;2023-02-15T23:21:44;1.95;80.11
67165;SHT31;54093;50.014;19.984;2023-02-15T23:31:17;1.93;80.08
67165;SHT31;54093;50.014;19.984;2023-02-15T23:40:38;1.88;80.28
67165;SHT31;54093;50.014;19.984;2023-02-15T23:50:24;1.77;80.09
67165;SHT31;54093;50.014;19.984;2023-02-15T23:59:45;1.77;80.15
